Mexia, TX

3:27 AM CDT on September 20, 2014 (GMT -0500)
Hillsboro | Change Station
CLOSE
Current Station
Airport
Location: Hillsboro,
Elevation: 686 ft
Nearby Weather Stations

Elev 686 ft 32.08 °N, 97.10 °W | Updated 12 minutes ago

Partly Cloudy
Partly Cloudy
74 °F
Feels Like 74 °F
N
6
Wind Variable Wind from SE

Today
High -- | Low -- °F
--% Chance of Precip.
Yesterday
High -- | Low -- °F
Precip. -- in
7:12 AM 7:25 PM
Waning Crescent, 13% visible
Pressure 29.96 in
Visibility 10.0 miles
Clouds Clear
Dew Point 70 °F
Humidity 86%
Rainfall 0.00 in
Snow Depth Not available.
UV 0 out of 12
Pollen 10.00 out of 12
Air Quality Not available.
Flu Activity Not available.
METAR KINJ 200815Z AUTO 13005KT 10SM CLR 24/21 A2996 RMK AO2 T02350210

More Conditions Fewer Conditions

Pressure 29.96 in
Visibility 10.0 miles
Clouds Clear
Dew Point 70 °F
Humidity 86%
Rainfall 0.00 in
Snow Depth Not available.
UV 0 out of 12
Pollen 10.00 out of 12
Air Quality Not available.
Flu Activity Not available.
METAR KINJ 200815Z AUTO 13005KT 10SM CLR 24/21 A2996 RMK AO2 T02350210

More Conditions Fewer Conditions

10-Day Weather Forecast

Almanac

Astronomy

Sep. 20, 2014 Rise Set
Actual Time 7:12 AM CDT 7:25 PM CDT
Civil Twilight 6:48 AM CDT 7:49 PM CDT
Nautical Twilight 6:20 AM CDT 8:17 PM CDT
Astronomical Twilight 5:51 AM CDT 8:46 PM CDT
Moon 4:03 AM CDT 5:20 PM CDT
Length of Visible Light 13h 00m
Length of Day
12h 12m
Tomorrow will be 1m 55s shorter.
Waning Crescent, 13% of the Moon is Illuminated
Today
Waning Crescent
Sep 24
New
Oct 1
First Quarter
Oct 8
Full
Oct 15
Last Quarter

Today's Extremes

State Highs State Lows

Community

WunderPhotos

Upload Photos

1,754,793 photos uploaded!

WunderBlogs® & News

Nearby

Snow Depth

Station Depth Elevation
No new snow has been reported.

Earthquake Activity

City Distance Mag. Time & Date
No recent earthquake activity has been reported nearby.
Minimum magnitude displayed is 2.5.

Coastal Water Temperatures

Place Temperature
No Stations Reporting

Nearby Weather Stations